»·PEaware :: N516DM KFAT-KSAC

N516DM :: KFAT-KSAC

FLIGHT INFORMATION

Flight Status: Arrived
Operator: Privately registered:
United States
More flights under this callsign
Pilot: Thomas H. (5912)
Aircraft: BEECH AIRCRAFT DEBONAIR BONANZA
(BE33)
More flights by this aircraft type
Origin: KFAT Fresno Yosemite Intl
United States
Destination: KSAC Sacramento Executive
United States
More flights between these airports :: More routes between these airports
Route: +
File this flight plan on PilotEdge
Remarks:
Altitude:
(Current/Filed)
6,500ft
Speed:
(Current/Filed)
0kts
Departed: 10-Aug-18 09:32 AM
Arrived: 10-Aug-18 10:29 AM
Distance/Time
Traveled:
134nm/0:57
Distance/Time
To Go:
Arrived

Flight Plot

Page will automatically refresh every two minutes.


Map Options




Map Legend


Flown Route
Filed Route
Departure Airport
Arrival Airport
Navaid (VOR, NDB)
Fix

Horizontal Profiles

Position Reports

Time Latitude Longitude Heading Altitude Ground
Speed
10-Aug-18 09:23 36.776415 -119.726401 306 328ft 0kts
10-Aug-18 09:24 36.776415 -119.726401 306 328ft 0kts
10-Aug-18 09:25 36.776415 -119.726401 306 328ft 0kts
10-Aug-18 09:26 36.776415 -119.726401 306 328ft 0kts
10-Aug-18 09:27 36.776415 -119.726401 306 328ft 0kts
10-Aug-18 09:28 36.776415 -119.726401 306 328ft 0kts
10-Aug-18 09:29 36.776288 -119.724806 126 329ft 15kts
10-Aug-18 09:30 36.772513 -119.718125 122 328ft 23kts
10-Aug-18 09:31 36.770123 -119.712287 126 328ft 20kts
10-Aug-18 09:32 36.769992 -119.711041 37 328ft 0kts
10-Aug-18 09:33 36.771686 -119.712623 304 328ft 56kts
10-Aug-18 09:34 36.786249 -119.738921 309 1204ft 101kts
10-Aug-18 09:35 36.806525 -119.766255 322 2098ft 108kts
10-Aug-18 09:36 36.826625 -119.794492 298 2980ft 111kts
10-Aug-18 09:37 36.844576 -119.825124 308 3829ft 110kts
10-Aug-18 09:38 36.860953 -119.857308 308 4629ft 109kts
10-Aug-18 09:39 36.877033 -119.889023 301 5348ft 110kts
10-Aug-18 09:40 36.894469 -119.919955 309 6020ft 108kts
10-Aug-18 09:41 36.913701 -119.950260 310 6480ft 124kts
10-Aug-18 09:42 36.936705 -119.988696 307 6477ft 145kts
10-Aug-18 09:43 36.962428 -120.030161 307 6426ft 153kts
10-Aug-18 09:44 36.989490 -120.071666 310 6423ft 154kts
10-Aug-18 09:45 37.017272 -120.112770 310 6423ft 154kts
10-Aug-18 09:46 37.045940 -120.152706 312 6433ft 154kts
10-Aug-18 09:47 37.074995 -120.192335 312 6433ft 154kts
10-Aug-18 09:48 37.103862 -120.231603 312 6433ft 156kts
10-Aug-18 09:49 37.133146 -120.271317 312 6429ft 156kts
10-Aug-18 09:50 37.161627 -120.312749 308 6421ft 156kts
10-Aug-18 09:51 37.188945 -120.354805 308 6415ft 155kts
10-Aug-18 09:52 37.216381 -120.396682 308 6410ft 155kts
10-Aug-18 09:53 37.250554 -120.428595 332 6407ft 156kts
10-Aug-18 09:54 37.289045 -120.453511 329 6406ft 156kts
10-Aug-18 09:55 37.326702 -120.480286 329 6406ft 155kts
10-Aug-18 09:56 37.364374 -120.507079 329 6405ft 155kts
10-Aug-18 09:57 37.401978 -120.533821 329 6405ft 155kts
10-Aug-18 09:58 37.439700 -120.560643 329 6405ft 155kts
10-Aug-18 09:59 37.477527 -120.587187 329 6405ft 155kts
10-Aug-18 10:00 37.515334 -120.613376 330 6405ft 155kts
10-Aug-18 10:01 37.553064 -120.639448 330 6405ft 154kts
10-Aug-18 10:02 37.590105 -120.665512 329 6406ft 153kts
10-Aug-18 10:03 37.627400 -120.691611 330 6408ft 153kts
10-Aug-18 10:04 37.664591 -120.717505 330 6407ft 152kts
10-Aug-18 10:05 37.701719 -120.743321 330 6406ft 152kts
10-Aug-18 10:06 37.738883 -120.769162 330 6406ft 152kts
10-Aug-18 10:07 37.775854 -120.794919 330 6410ft 152kts
10-Aug-18 10:08 37.813161 -120.820824 329 6425ft 154kts
10-Aug-18 10:09 37.850843 -120.847188 329 6434ft 155kts
10-Aug-18 10:10 37.888730 -120.873699 328 6437ft 156kts
10-Aug-18 10:11 37.926877 -120.900418 328 6435ft 156kts
10-Aug-18 10:12 37.964839 -120.927061 329 6423ft 156kts
10-Aug-18 10:13 38.002721 -120.953660 329 6410ft 155kts
10-Aug-18 10:14 38.040736 -120.979812 330 6405ft 155kts
10-Aug-18 10:15 38.078334 -121.006197 321 6406ft 154kts
10-Aug-18 10:16 38.110457 -121.041385 317 6406ft 154kts
10-Aug-18 10:17 38.142860 -121.077230 317 6388ft 156kts
10-Aug-18 10:18 38.178059 -121.115708 317 5901ft 173kts
10-Aug-18 10:19 38.214972 -121.155994 317 5399ft 174kts
10-Aug-18 10:20 38.250280 -121.196754 315 4888ft 169kts
10-Aug-18 10:21 38.284105 -121.236400 315 4383ft 163kts
10-Aug-18 10:22 38.316955 -121.275084 315 3879ft 160kts
10-Aug-18 10:23 38.349394 -121.313854 315 3378ft 160kts
10-Aug-18 10:24 38.382084 -121.351698 317 2984ft 154kts
10-Aug-18 10:25 38.411941 -121.386534 317 2951ft 140kts
10-Aug-18 10:26 38.443036 -121.420107 321 2478ft 148kts
10-Aug-18 10:27 38.476338 -121.450308 323 2021ft 128kts
10-Aug-18 10:28 38.489400 -121.486219 298 864ft 95kts
10-Aug-18 10:29 38.509089 -121.493877 0 20ft 60kts
10-Aug-18 10:30 38.514965 -121.494311 206 20ft 0kts
10-Aug-18 10:31 38.514039 -121.495082 214 20ft 18kts
10-Aug-18 10:32 38.511337 -121.499842 261 20ft 14kts

Navigation Log

Ident Type
1. KFAT Airport
2. KSAC Airport